Time;durP1;ratioP1;P1;durP2;ratioP2;P2;SDS_P1;SDS_P2;PMS_P1;PMS_P2;Temp;Humidity;BMP_temperature;BMP_pressure;BME280_temperature;BME280_humidity;BME280_pressure;Samples;Min_cycle;Max_cycle;Signal;HPM_P1;HPM_P2
2023/03/08 00:01:01;;;;;;;4.70;1.20;;;;;;;;;;4897790;29;20477;-70
2023/03/08 00:03:27;;;;;;;3.10;0.98;;;;;;;;;;4897792;29;20040;-70
2023/03/08 00:05:53;;;;;;;3.55;1.00;;;;;;;;;;4895448;29;20059;-70
2023/03/08 00:08:19;;;;;;;4.80;1.10;;;;;;;;;;4881187;29;20040;-70
2023/03/08 00:10:45;;;;;;;1.40;1.00;;;;;;;;;;4880772;29;20036;-70
2023/03/08 00:13:11;;;;;;;3.40;2.03;;;;;;;;;;4879170;29;20123;-69
2023/03/08 00:15:38;;;;;;;4.60;1.98;;;;;;;;;;4897967;29;20090;-70
2023/03/08 00:18:04;;;;;;;1.38;1.10;;;;;;;;;;4899801;29;20112;-69
2023/03/08 00:20:31;;;;;;;2.55;1.00;;;;;;;;;;4897322;29;20123;-70
2023/03/08 00:22:57;;;;;;;3.60;1.13;;;;;;;;;;4884537;29;20120;-70
2023/03/08 00:25:23;;;;;;;2.03;0.90;;;;;;;;;;4901412;29;20044;-73
2023/03/08 00:27:49;;;;;;;4.00;1.00;;;;;;;;;;4870804;29;20112;-73
2023/03/08 00:30:15;;;;;;;1.52;0.98;;;;;;;;;;4901228;29;20424;-73
2023/03/08 00:32:42;;;;;;;6.90;1.80;;;;;;;;;;4898214;29;20051;-74
2023/03/08 00:35:08;;;;;;;2.25;1.25;;;;;;;;;;4901410;29;20493;-74
2023/03/08 00:37:34;;;;;;;3.80;1.20;;;;;;;;;;4884731;29;20045;-74
2023/03/08 00:40:00;;;;;;;2.95;1.33;;;;;;;;;;4884994;29;20044;-74
2023/03/08 00:42:26;;;;;;;2.08;1.45;;;;;;;;;;4900085;29;20050;-73
2023/03/08 00:44:52;;;;;;;3.63;1.30;;;;;;;;;;4888532;29;20405;-74
2023/03/08 00:47:18;;;;;;;5.43;1.30;;;;;;;;;;4884999;29;20048;-74
2023/03/08 00:49:44;;;;;;;4.00;1.00;;;;;;;;;;4884060;29;20124;-74
2023/03/08 00:52:11;;;;;;;2.67;1.10;;;;;;;;;;4898578;29;20076;-73
2023/03/08 00:54:37;;;;;;;4.32;1.35;;;;;;;;;;4893751;29;20075;-73
2023/03/08 00:57:03;;;;;;;2.90;1.30;;;;;;;;;;4895573;29;20040;-73
2023/03/08 00:59:29;;;;;;;5.40;1.80;;;;;;;;;;4901173;29;20036;-73
2023/03/08 01:01:55;;;;;;;5.25;1.90;;;;;;;;;;4880881;29;20044;-74
2023/03/08 01:04:21;;;;;;;5.43;1.83;;;;;;;;;;4900959;29;20571;-74
2023/03/08 01:06:47;;;;;;;2.35;1.10;;;;;;;;;;4893392;29;20048;-73
2023/03/08 01:09:13;;;;;;;3.28;1.42;;;;;;;;;;4898365;29;20131;-73
2023/03/08 01:11:39;;;;;;;1.83;1.05;;;;;;;;;;4898210;29;20045;-74
2023/03/08 01:14:07;;;;;;;4.05;1.20;;;;;;;;;;4889775;29;20052;-74
2023/03/08 01:16:34;;;;;;;1.75;1.15;;;;;;;;;;4897321;29;20059;-74
2023/03/08 01:19:00;;;;;;;4.32;1.02;;;;;;;;;;4883352;29;20055;-74
2023/03/08 01:21:28;;;;;;;4.18;1.67;;;;;;;;;;4883454;29;20044;-73
2023/03/08 01:23:54;;;;;;;3.47;1.10;;;;;;;;;;4895576;29;20043;-74
2023/03/08 01:26:21;;;;;;;2.42;1.20;;;;;;;;;;4884361;29;20367;-74
2023/03/08 01:28:48;;;;;;;2.08;1.40;;;;;;;;;;4899055;29;20520;-73
2023/03/08 01:31:15;;;;;;;5.63;1.70;;;;;;;;;;4883491;29;20043;-74
2023/03/08 01:33:42;;;;;;;4.85;1.50;;;;;;;;;;4883084;29;20037;-74
2023/03/08 01:36:09;;;;;;;3.47;1.40;;;;;;;;;;4889029;29;20040;-74
2023/03/08 01:38:36;;;;;;;6.75;1.85;;;;;;;;;;4882970;29;20046;-73
2023/03/08 01:41:03;;;;;;;6.13;1.95;;;;;;;;;;4882922;29;20041;-73
2023/03/08 01:43:34;;;;;;;4.45;1.80;;;;;;;;;;4852272;29;20040;-73
2023/03/08 01:46:05;;;;;;;4.50;1.35;;;;;;;;;;4892480;29;20040;-74
2023/03/08 01:48:33;;;;;;;2.90;1.15;;;;;;;;;;4899924;29;20044;-74
2023/03/08 01:51:00;;;;;;;2.20;1.10;;;;;;;;;;4885861;29;20040;-73
2023/03/08 01:53:26;;;;;;;1.15;0.95;;;;;;;;;;4899915;29;20040;-73
2023/03/08 01:55:52;;;;;;;2.17;0.88;;;;;;;;;;4893619;29;20477;-74
2023/03/08 01:58:18;;;;;;;2.53;1.67;;;;;;;;;;4899969;29;20042;-74
2023/03/08 02:00:44;;;;;;;2.15;1.17;;;;;;;;;;4899371;29;20040;-74
2023/03/08 02:03:11;;;;;;;3.38;1.02;;;;;;;;;;4899552;29;20405;-74
2023/03/08 02:05:40;;;;;;;2.00;0.80;;;;;;;;;;4899447;29;20052;-74
2023/03/08 02:08:06;;;;;;;1.33;1.00;;;;;;;;;;4899510;29;20048;-74
2023/03/08 02:10:33;;;;;;;3.60;1.35;;;;;;;;;;4899664;29;20433;-74
2023/03/08 02:12:59;;;;;;;4.38;1.10;;;;;;;;;;4895112;29;20039;-74
2023/03/08 02:15:25;;;;;;;4.07;1.10;;;;;;;;;;4899986;29;20448;-74
2023/03/08 02:17:52;;;;;;;5.13;1.75;;;;;;;;;;4899333;29;20032;-74
2023/03/08 02:20:27;;;;;;;1.30;1.10;;;;;;;;;;4885924;29;20044;-74
2023/03/08 02:22:53;;;;;;;0.90;0.90;;;;;;;;;;4874155;29;20450;-74
2023/03/08 02:25:21;;;;;;;1.38;0.90;;;;;;;;;;4883670;29;20040;-74
2023/03/08 02:27:48;;;;;;;2.10;1.10;;;;;;;;;;4895162;29;20185;-74
2023/03/08 02:30:15;;;;;;;4.22;1.13;;;;;;;;;;4896782;29;20052;-74
2023/03/08 02:32:42;;;;;;;4.53;1.20;;;;;;;;;;4897739;29;20076;-74
2023/03/08 02:35:08;;;;;;;5.05;1.30;;;;;;;;;;4896190;29;20625;-74
2023/03/08 02:37:34;;;;;;;4.18;1.30;;;;;;;;;;4896600;29;20123;-74
2023/03/08 02:40:00;;;;;;;3.70;1.30;;;;;;;;;;4866140;29;20512;-74
2023/03/08 02:42:26;;;;;;;2.92;1.30;;;;;;;;;;4899573;29;20445;-74
2023/03/08 02:44:52;;;;;;;1.48;1.20;;;;;;;;;;4881889;29;20051;-74
2023/03/08 02:47:18;;;;;;;3.08;1.20;;;;;;;;;;4895550;29;20079;-74
2023/03/08 02:49:44;;;;;;;1.73;1.10;;;;;;;;;;4881768;29;20092;-74
2023/03/08 02:52:10;;;;;;;1.55;0.95;;;;;;;;;;4883416;29;20058;-70
2023/03/08 02:54:36;;;;;;;3.00;1.27;;;;;;;;;;4874655;29;20036;-70
2023/03/08 02:57:03;;;;;;;1.90;1.25;;;;;;;;;;4893234;29;20041;-70
2023/03/08 02:59:29;;;;;;;4.07;1.00;;;;;;;;;;4896316;29;20044;-70
2023/03/08 03:01:56;;;;;;;4.03;1.55;;;;;;;;;;4889791;29;20092;-70
2023/03/08 03:04:22;;;;;;;4.00;1.70;;;;;;;;;;4882971;29;20048;-70
2023/03/08 03:06:48;;;;;;;2.55;1.75;;;;;;;;;;4892680;29;20393;-70
2023/03/08 03:09:14;;;;;;;4.97;1.90;;;;;;;;;;4883826;29;20048;-70
2023/03/08 03:11:41;;;;;;;5.72;2.30;;;;;;;;;;4898151;29;20087;-70
2023/03/08 03:14:07;;;;;;;7.35;2.55;;;;;;;;;;4897367;29;20071;-70
2023/03/08 03:16:33;;;;;;;3.47;1.60;;;;;;;;;;4896855;29;20045;-71
2023/03/08 03:18:59;;;;;;;3.47;1.20;;;;;;;;;;4898323;29;20040;-70
2023/03/08 03:21:25;;;;;;;2.13;1.35;;;;;;;;;;4897491;29;20108;-70
2023/03/08 03:23:53;;;;;;;3.70;1.42;;;;;;;;;;4897936;29;20125;-70
2023/03/08 03:26:20;;;;;;;2.92;1.15;;;;;;;;;;4876997;29;20041;-70
2023/03/08 03:28:47;;;;;;;2.00;1.30;;;;;;;;;;4897977;29;20165;-71
2023/03/08 03:31:15;;;;;;;1.25;1.15;;;;;;;;;;4897958;29;20366;-71
2023/03/08 03:33:41;;;;;;;1.92;1.50;;;;;;;;;;4898221;29;20036;-71
2023/03/08 03:36:08;;;;;;;2.10;1.33;;;;;;;;;;4890194;29;20366;-70
2023/03/08 03:38:34;;;;;;;1.83;1.20;;;;;;;;;;4898289;29;20131;-70
2023/03/08 03:41:02;;;;;;;4.72;1.88;;;;;;;;;;4897011;29;20127;-71
2023/03/08 03:43:28;;;;;;;3.60;1.63;;;;;;;;;;4898350;29;20044;-70
2023/03/08 03:45:55;;;;;;;5.22;1.92;;;;;;;;;;4896720;29;20481;-71
2023/03/08 03:48:21;;;;;;;4.13;2.00;;;;;;;;;;4882715;29;20040;-71
2023/03/08 03:50:53;;;;;;;6.15;2.15;;;;;;;;;;4886021;29;20056;-71
2023/03/08 03:53:19;;;;;;;6.30;2.17;;;;;;;;;;4900644;29;20104;-71
2023/03/08 03:55:45;;;;;;;3.60;1.35;;;;;;;;;;4865325;29;20052;-71
2023/03/08 03:58:11;;;;;;;3.72;1.80;;;;;;;;;;4902016;29;20076;-71
2023/03/08 04:00:37;;;;;;;4.25;1.65;;;;;;;;;;4899934;29;20096;-71
2023/03/08 04:03:03;;;;;;;6.53;1.83;;;;;;;;;;4869192;29;20560;-71
2023/03/08 04:05:29;;;;;;;2.15;1.60;;;;;;;;;;4897384;29;20505;-71
2023/03/08 04:07:55;;;;;;;3.17;1.30;;;;;;;;;;4869443;29;20125;-71
2023/03/08 04:10:21;;;;;;;4.78;1.20;;;;;;;;;;4899206;29;20048;-71
2023/03/08 04:12:48;;;;;;;1.92;1.17;;;;;;;;;;4883596;29;20048;-71
2023/03/08 04:15:14;;;;;;;2.45;1.50;;;;;;;;;;4899263;29;20135;-71
2023/03/08 04:17:40;;;;;;;4.38;1.50;;;;;;;;;;4899364;29;20438;-71
2023/03/08 04:20:07;;;;;;;2.95;1.30;;;;;;;;;;4892460;29;20710;-71
2023/03/08 04:22:33;;;;;;;2.63;1.23;;;;;;;;;;4884592;29;20398;-71
2023/03/08 04:24:59;;;;;;;2.88;1.55;;;;;;;;;;4891814;29;20044;-71
2023/03/08 04:27:25;;;;;;;2.20;1.60;;;;;;;;;;4899916;29;20060;-71
2023/03/08 04:29:52;;;;;;;8.15;2.88;;;;;;;;;;4879739;29;20048;-71
2023/03/08 04:32:18;;;;;;;10.38;3.50;;;;;;;;;;4900714;29;20191;-71
2023/03/08 04:34:44;;;;;;;7.07;3.13;;;;;;;;;;4884258;29;20040;-71
2023/03/08 04:37:11;;;;;;;4.50;1.73;;;;;;;;;;4895861;29;20120;-71
2023/03/08 04:39:37;;;;;;;5.22;2.17;;;;;;;;;;4900913;29;20387;-71
2023/03/08 04:42:03;;;;;;;2.63;1.40;;;;;;;;;;4899916;29;20044;-71
2023/03/08 04:44:29;;;;;;;4.00;1.38;;;;;;;;;;4900779;29;20080;-71
2023/03/08 04:46:55;;;;;;;2.45;1.10;;;;;;;;;;4899629;29;20072;-71
2023/03/08 04:49:23;;;;;;;6.75;1.67;;;;;;;;;;4896103;29;20044;-71
2023/03/08 04:51:49;;;;;;;3.75;1.20;;;;;;;;;;4897357;29;20103;-71
2023/03/08 04:54:15;;;;;;;1.48;1.10;;;;;;;;;;4901382;29;20049;-71
2023/03/08 04:56:41;;;;;;;4.05;1.77;;;;;;;;;;4900923;29;20507;-71
2023/03/08 04:59:07;;;;;;;1.92;1.38;;;;;;;;;;4900759;29;20072;-71
2023/03/08 05:01:33;;;;;;;2.83;1.30;;;;;;;;;;4870037;29;20044;-71
2023/03/08 05:03:59;;;;;;;1.48;1.23;;;;;;;;;;4900387;29;20040;-71
2023/03/08 05:06:26;;;;;;;3.53;1.25;;;;;;;;;;4900412;29;20156;-71
2023/03/08 05:08:53;;;;;;;1.58;1.15;;;;;;;;;;4899869;29;20079;-71
2023/03/08 05:11:24;;;;;;;3.63;1.30;;;;;;;;;;4887755;29;20044;-71
2023/03/08 05:13:52;;;;;;;2.30;1.35;;;;;;;;;;4900360;29;20040;-71
2023/03/08 05:16:18;;;;;;;4.13;2.08;;;;;;;;;;4900447;29;20059;-71
2023/03/08 05:18:44;;;;;;;5.13;3.13;;;;;;;;;;4899883;29;20040;-71
2023/03/08 05:21:11;;;;;;;5.00;3.97;;;;;;;;;;4882088;29;20048;-71
2023/03/08 05:23:37;;;;;;;6.22;3.53;;;;;;;;;;4916929;29;20040;-72
2023/03/08 05:26:04;;;;;;;4.32;3.50;;;;;;;;;;4899854;29;20040;-72
2023/03/08 05:28:31;;;;;;;6.88;3.25;;;;;;;;;;4899821;29;20048;-72
2023/03/08 05:31:01;;;;;;;4.78;3.08;;;;;;;;;;4898543;29;20062;-72
2023/03/08 05:33:27;;;;;;;5.22;2.80;;;;;;;;;;4897614;29;20477;-72
2023/03/08 05:35:54;;;;;;;4.68;2.78;;;;;;;;;;4882973;29;20037;-72
2023/03/08 05:38:21;;;;;;;4.55;2.50;;;;;;;;;;4881927;29;20036;-72
2023/03/08 05:40:47;;;;;;;4.03;2.50;;;;;;;;;;4900236;29;20493;-72
2023/03/08 05:43:13;;;;;;;4.35;2.53;;;;;;;;;;4895492;29;20048;-72
2023/03/08 05:45:39;;;;;;;2.67;1.75;;;;;;;;;;4867525;29;20072;-72
2023/03/08 05:48:06;;;;;;;5.68;1.85;;;;;;;;;;4883060;29;20053;-72
2023/03/08 05:50:32;;;;;;;4.35;2.08;;;;;;;;;;4882849;29;20560;-72
2023/03/08 05:52:58;;;;;;;6.82;4.00;;;;;;;;;;4899410;29;20036;-72
2023/03/08 05:55:24;;;;;;;3.58;2.40;;;;;;;;;;4899552;29;20378;-72
2023/03/08 05:57:50;;;;;;;3.85;1.70;;;;;;;;;;4898499;29;20044;-72
2023/03/08 06:00:16;;;;;;;3.35;1.70;;;;;;;;;;4898249;29;20047;-72
2023/03/08 06:02:43;;;;;;;4.05;1.85;;;;;;;;;;4896082;29;20497;-72
2023/03/08 06:05:09;;;;;;;2.13;1.60;;;;;;;;;;4888299;29;20055;-72
2023/03/08 06:07:35;;;;;;;1.55;1.45;;;;;;;;;;4893933;29;20114;-72
2023/03/08 06:10:01;;;;;;;2.03;1.50;;;;;;;;;;4882316;29;20044;-72
2023/03/08 06:12:27;;;;;;;2.75;1.58;;;;;;;;;;4882434;29;20122;-72
2023/03/08 06:14:53;;;;;;;2.92;1.80;;;;;;;;;;4898531;29;20043;-71
2023/03/08 06:17:19;;;;;;;3.83;1.70;;;;;;;;;;4897252;29;20051;-72
2023/03/08 06:19:46;;;;;;;5.72;1.83;;;;;;;;;;4881966;29;20055;-72
2023/03/08 06:22:12;;;;;;;3.28;1.70;;;;;;;;;;4881270;29;20052;-72
2023/03/08 06:24:38;;;;;;;3.08;1.50;;;;;;;;;;4899347;29;20048;-70
2023/03/08 06:27:04;;;;;;;9.45;2.10;;;;;;;;;;4897666;29;20044;-72
2023/03/08 06:29:30;;;;;;;3.85;2.30;;;;;;;;;;4883909;29;20101;-72
2023/03/08 06:31:56;;;;;;;5.05;2.42;;;;;;;;;;4893916;29;20437;-72
2023/03/08 06:34:22;;;;;;;4.60;2.30;;;;;;;;;;4899039;29;20063;-72
2023/03/08 06:36:50;;;;;;;8.98;2.30;;;;;;;;;;4882253;29;20078;-72
2023/03/08 06:39:17;;;;;;;4.57;2.22;;;;;;;;;;4897378;29;20040;-71
2023/03/08 06:41:43;;;;;;;5.05;2.13;;;;;;;;;;4873722;29;20041;-72
2023/03/08 06:44:09;;;;;;;5.00;2.45;;;;;;;;;;4891630;29;20441;-72
2023/03/08 06:46:35;;;;;;;7.03;2.40;;;;;;;;;;4888632;29;20118;-71
2023/03/08 06:49:02;;;;;;;7.00;2.58;;;;;;;;;;4880945;29;20043;-71
2023/03/08 06:51:28;;;;;;;2.47;1.90;;;;;;;;;;4897096;29;20053;-72
2023/03/08 06:53:54;;;;;;;7.50;2.58;;;;;;;;;;4879031;29;20458;-72
2023/03/08 06:56:20;;;;;;;3.55;2.35;;;;;;;;;;4898962;29;20092;-72
2023/03/08 06:58:47;;;;;;;5.43;2.40;;;;;;;;;;4896204;29;20153;-72
2023/03/08 07:01:13;;;;;;;7.13;3.05;;;;;;;;;;4889728;29;20059;-72
2023/03/08 07:03:39;;;;;;;3.95;2.58;;;;;;;;;;4885042;29;20040;-72
2023/03/08 07:06:07;;;;;;;5.32;2.70;;;;;;;;;;4875751;29;20043;-72
2023/03/08 07:08:33;;;;;;;4.18;2.70;;;;;;;;;;4887706;29;20040;-72
2023/03/08 07:10:59;;;;;;;10.70;3.65;;;;;;;;;;4890509;29;20043;-71
2023/03/08 07:13:25;;;;;;;9.77;3.22;;;;;;;;;;4893606;29;20047;-72
2023/03/08 07:15:52;;;;;;;5.20;3.20;;;;;;;;;;4888254;29;20040;-72
2023/03/08 07:18:18;;;;;;;5.30;3.15;;;;;;;;;;4892422;29;20064;-72
2023/03/08 07:20:44;;;;;;;10.65;3.30;;;;;;;;;;4881238;29;20049;-72
2023/03/08 07:23:11;;;;;;;6.95;2.53;;;;;;;;;;4881968;29;20062;-72
2023/03/08 07:25:40;;;;;;;7.30;2.90;;;;;;;;;;4907147;29;20120;-72
2023/03/08 07:28:06;;;;;;;5.43;2.60;;;;;;;;;;4900452;29;20095;-72
2023/03/08 07:30:32;;;;;;;5.95;2.75;;;;;;;;;;4879093;29;20045;-72
2023/03/08 07:32:58;;;;;;;8.40;2.78;;;;;;;;;;4882459;29;20199;-72
2023/03/08 07:35:24;;;;;;;4.40;2.50;;;;;;;;;;4887831;29;20451;-72
2023/03/08 07:37:50;;;;;;;3.63;2.40;;;;;;;;;;4881159;29;20072;-71
2023/03/08 07:40:17;;;;;;;6.50;2.65;;;;;;;;;;4894430;29;20052;-71
2023/03/08 07:42:43;;;;;;;7.35;2.95;;;;;;;;;;4870163;29;20107;-71
2023/03/08 07:45:11;;;;;;;6.97;2.80;;;;;;;;;;4897907;29;20501;-72
2023/03/08 07:47:37;;;;;;;10.60;2.83;;;;;;;;;;4899204;29;20046;-71
2023/03/08 07:50:03;;;;;;;4.97;2.60;;;;;;;;;;4893081;29;20048;-71
2023/03/08 07:52:29;;;;;;;11.68;2.50;;;;;;;;;;4884298;29;20080;-71
2023/03/08 07:54:56;;;;;;;6.55;2.70;;;;;;;;;;4897722;29;20060;-71
2023/03/08 07:57:22;;;;;;;5.65;2.83;;;;;;;;;;4867073;29;20060;-71
2023/03/08 07:59:49;;;;;;;5.57;2.50;;;;;;;;;;4891261;29;20047;-71
2023/03/08 08:02:16;;;;;;;9.32;2.90;;;;;;;;;;4871833;29;20057;-71
2023/03/08 08:04:42;;;;;;;4.55;3.10;;;;;;;;;;4899900;29;20456;-71
2023/03/08 08:07:11;;;;;;;7.97;3.00;;;;;;;;;;4908641;29;20048;-71
2023/03/08 08:09:37;;;;;;;6.53;2.70;;;;;;;;;;4899158;29;20044;-71
2023/03/08 08:12:04;;;;;;;5.00;2.50;;;;;;;;;;4899622;29;20052;-71
2023/03/08 08:14:30;;;;;;;6.07;2.58;;;;;;;;;;4883798;29;20059;-71
2023/03/08 08:16:57;;;;;;;4.25;2.40;;;;;;;;;;4899663;29;20043;-71
2023/03/08 08:19:23;;;;;;;6.10;2.50;;;;;;;;;;4893443;29;20048;-71
2023/03/08 08:21:49;;;;;;;5.30;2.53;;;;;;;;;;4897853;29;20470;-71
2023/03/08 08:24:16;;;;;;;3.45;2.45;;;;;;;;;;4916269;29;20186;-71
2023/03/08 08:26:42;;;;;;;5.72;2.40;;;;;;;;;;4899500;29;20044;-70
2023/03/08 08:29:08;;;;;;;3.28;2.42;;;;;;;;;;4897281;29;20487;-71
2023/03/08 08:31:34;;;;;;;5.10;2.78;;;;;;;;;;4891561;29;20044;-71
2023/03/08 08:34:00;;;;;;;8.35;3.28;;;;;;;;;;4889992;29;20073;-71
2023/03/08 08:36:27;;;;;;;7.35;2.47;;;;;;;;;;4885669;29;20040;-72
2023/03/08 08:38:53;;;;;;;4.97;2.67;;;;;;;;;;4886144;29;20058;-71
2023/03/08 08:41:20;;;;;;;3.65;2.35;;;;;;;;;;4885201;29;20044;-71
2023/03/08 08:43:47;;;;;;;6.80;2.90;;;;;;;;;;4877469;29;20040;-72
2023/03/08 08:46:13;;;;;;;3.67;2.60;;;;;;;;;;4889932;29;20079;-71
2023/03/08 08:48:39;;;;;;;12.70;3.70;;;;;;;;;;4886990;29;20044;-71
2023/03/08 08:51:06;;;;;;;5.13;2.88;;;;;;;;;;4882711;29;20044;-71
2023/03/08 08:53:33;;;;;;;6.40;3.13;;;;;;;;;;4893105;29;20051;-71
2023/03/08 08:55:59;;;;;;;7.15;3.70;;;;;;;;;;4893635;29;20044;-71
2023/03/08 08:58:25;;;;;;;6.45;3.10;;;;;;;;;;4901690;29;20047;-71
2023/03/08 09:00:51;;;;;;;8.48;3.50;;;;;;;;;;4887160;29;20059;-71
2023/03/08 09:03:17;;;;;;;5.05;2.97;;;;;;;;;;4898473;29;20059;-71
2023/03/08 09:05:44;;;;;;;9.18;3.67;;;;;;;;;;4895036;29;20056;-71
2023/03/08 09:08:11;;;;;;;7.15;2.50;;;;;;;;;;4894382;29;20120;-70
2023/03/08 09:10:38;;;;;;;8.30;3.40;;;;;;;;;;4904125;29;20047;-71
2023/03/08 09:13:05;;;;;;;7.40;3.35;;;;;;;;;;4886442;29;20048;-71
2023/03/08 09:15:31;;;;;;;4.80;2.88;;;;;;;;;;4896227;29;20076;-71
2023/03/08 09:17:57;;;;;;;6.63;3.22;;;;;;;;;;4895991;29;20037;-71
2023/03/08 09:20:23;;;;;;;8.15;3.25;;;;;;;;;;4895971;29;20040;-70
2023/03/08 09:22:49;;;;;;;6.05;3.20;;;;;;;;;;4900858;29;20096;-70
2023/03/08 09:25:18;;;;;;;6.57;3.50;;;;;;;;;;4895920;29;20036;-70
2023/03/08 09:27:44;;;;;;;8.77;3.33;;;;;;;;;;4918141;29;20067;-70
2023/03/08 09:30:12;;;;;;;6.10;3.35;;;;;;;;;;4900582;29;20048;-70
2023/03/08 09:32:38;;;;;;;5.15;3.40;;;;;;;;;;4904551;29;20404;-71
2023/03/08 09:35:05;;;;;;;8.60;3.65;;;;;;;;;;4892136;29;20056;-70
2023/03/08 09:37:31;;;;;;;4.88;3.47;;;;;;;;;;4893251;29;20515;-70
2023/03/08 09:39:57;;;;;;;5.13;3.50;;;;;;;;;;4898791;29;20036;-70
2023/03/08 09:42:26;;;;;;;5.95;3.50;;;;;;;;;;4896631;29;20080;-70
2023/03/08 09:45:01;;;;;;;6.40;3.83;;;;;;;;;;4892218;29;20073;-70
2023/03/08 09:47:28;;;;;;;10.70;3.88;;;;;;;;;;4915514;29;20505;-71
2023/03/08 09:49:55;;;;;;;6.18;4.00;;;;;;;;;;4893003;29;20577;-71
2023/03/08 09:52:42;;;;;;;11.45;5.18;;;;;;;;;;4885784;29;20447;-70
2023/03/08 09:55:16;;;;;;;11.95;4.47;;;;;;;;;;4895131;29;20123;-71
2023/03/08 09:57:51;;;;;;;7.35;3.72;;;;;;;;;;4895298;29;20477;-71
2023/03/08 10:00:22;;;;;;;8.80;3.67;;;;;;;;;;4875357;29;20093;-71
2023/03/08 10:03:08;;;;;;;7.32;3.42;;;;;;;;;;4913932;29;20055;-71
2023/03/08 10:05:43;;;;;;;6.72;3.60;;;;;;;;;;4912507;29;20052;-71
2023/03/08 10:08:12;;;;;;;5.40;3.72;;;;;;;;;;4885096;29;20039;-71
2023/03/08 10:10:44;;;;;;;8.13;3.70;;;;;;;;;;4893129;29;20047;-71
2023/03/08 10:13:13;;;;;;;7.25;3.28;;;;;;;;;;4914880;29;20350;-71
2023/03/08 10:15:42;;;;;;;11.07;3.80;;;;;;;;;;4892941;29;20374;-71
2023/03/08 10:18:28;;;;;;;10.30;3.42;;;;;;;;;;4897937;29;20115;-71
2023/03/08 10:20:55;;;;;;;6.45;3.40;;;;;;;;;;4895633;29;20048;-71
2023/03/08 10:23:22;;;;;;;5.38;3.08;;;;;;;;;;4896835;29;20465;-71
2023/03/08 10:25:49;;;;;;;5.72;3.30;;;;;;;;;;4895733;29;20049;-70
2023/03/08 10:28:17;;;;;;;7.80;3.33;;;;;;;;;;4897702;29;20185;-71
2023/03/08 10:30:47;;;;;;;8.40;3.13;;;;;;;;;;4884619;29;20048;-71
2023/03/08 10:33:16;;;;;;;6.57;3.70;;;;;;;;;;4900062;29;20091;-71
2023/03/08 10:35:56;;;;;;;4.90;2.67;;;;;;;;;;4897034;29;20130;-71
2023/03/08 10:38:23;;;;;;;9.80;3.00;;;;;;;;;;4896879;29;20043;-71
2023/03/08 10:40:58;;;;;;;4.45;2.50;;;;;;;;;;4898880;29;20040;-71
2023/03/08 10:43:28;;;;;;;7.40;2.88;;;;;;;;;;4897303;29;20079;-71
2023/03/08 10:46:03;;;;;;;6.60;2.80;;;;;;;;;;4897632;29;20040;-72
2023/03/08 10:48:29;;;;;;;8.98;2.67;;;;;;;;;;4895966;29;20059;-71
2023/03/08 10:50:59;;;;;;;6.30;2.88;;;;;;;;;;4881939;29;20127;-71
2023/03/08 10:53:28;;;;;;;7.85;2.92;;;;;;;;;;4896584;29;20040;-71
2023/03/08 10:55:54;;;;;;;8.13;3.25;;;;;;;;;;4896729;29;20051;-71
2023/03/08 10:58:32;;;;;;;11.43;3.47;;;;;;;;;;4896366;29;20143;-71
2023/03/08 11:00:59;;;;;;;6.70;3.38;;;;;;;;;;4898249;29;20036;-71
2023/03/08 11:03:26;;;;;;;6.72;3.08;;;;;;;;;;4896212;29;20396;-73
2023/03/08 11:05:52;;;;;;;8.05;3.10;;;;;;;;;;4892384;29;20400;-73
2023/03/08 11:08:19;;;;;;;6.65;2.90;;;;;;;;;;4885478;29;20056;-72
2023/03/08 11:10:45;;;;;;;5.18;2.30;;;;;;;;;;4883866;29;20131;-72
2023/03/08 11:13:27;;;;;;;6.22;2.78;;;;;;;;;;4898303;29;20050;-73
2023/03/08 11:16:03;;;;;;;6.82;3.03;;;;;;;;;;4881693;29;20040;-73
2023/03/08 11:18:47;;;;;;;9.43;3.30;;;;;;;;;;4894691;29;20082;-73
2023/03/08 11:21:20;;;;;;;14.20;3.95;;;;;;;;;;4904675;29;20134;-73
2023/03/08 11:24:05;;;;;;;5.68;2.85;;;;;;;;;;4888918;29;20032;-73
2023/03/08 11:26:59;;;;;;;7.28;3.08;;;4.60;99.90;;;;;;4897180;29;20548;-72
2023/03/08 11:29:34;;;;;;;9.32;2.80;;;;;;;;;;4897256;29;20113;-73
2023/03/08 11:32:09;;;;;;;8.32;2.95;;;;;;;;;;4897447;29;20497;-72
2023/03/08 11:34:48;;;;;;;4.82;2.70;;;;;;;;;;4897189;29;20392;-73
2023/03/08 11:37:14;;;;;;;5.80;2.50;;;;;;;;;;4913479;29;20046;-74
2023/03/08 11:39:43;;;;;;;6.78;1.98;;;;;;;;;;4875977;29;20072;-74
2023/03/08 11:42:28;;;;;;;7.88;1.75;;;;;;;;;;4881831;29;20036;-74
2023/03/08 11:45:13;;;;;;;5.18;1.70;;;;;;;;;;4885879;29;20068;-74
2023/03/08 11:48:18;;;;;;;4.28;2.03;;;;;;;;;;4892633;29;20055;-73
2023/03/08 11:50:47;;;;;;;3.95;1.95;;;;;;;;;;4783755;29;20103;-73
2023/03/08 11:53:21;;;;;;;6.80;2.10;;;;;;;;;;4796922;29;20046;-74
2023/03/08 11:56:05;;;;;;;5.05;1.88;;;;;;;;;;4860208;29;20131;-73
2023/03/08 11:58:35;;;;;;;5.80;1.65;;;;;;;;;;4891466;29;20036;-73
2023/03/08 12:01:02;;;;;;;10.82;2.70;;;;;;;;;;4912436;29;20046;-73
2023/03/08 12:03:36;;;;;;;7.82;3.03;;;;;;;;;;4883599;29;20088;-73
2023/03/08 12:06:05;;;;;;;4.13;2.00;;;;;;;;;;4888822;29;20044;-73
2023/03/08 12:08:31;;;;;;;10.70;2.20;;;;;;;;;;4894147;29;20040;-74
2023/03/08 12:10:57;;;;;;;4.60;1.90;;;;;;;;;;4887772;29;20116;-74
2023/03/08 12:13:32;;;;;;;4.63;1.55;;;;;;;;;;4896441;29;20052;-74
2023/03/08 12:16:01;;;;;;;4.28;1.83;;;;;;;;;;4896798;29;20485;-73
2023/03/08 12:18:31;;;;;;;5.18;1.85;;;;;;;;;;4876210;29;20052;-74
2023/03/08 12:21:08;;;;;;;5.35;1.80;;;;;;;;;;4892976;29;20036;-73
2023/03/08 12:23:41;;;;;;;7.07;2.00;;;;;;;;;;4898524;29;20045;-73
2023/03/08 12:26:06;;;;;;;;;;;;;;;;;;4880339;29;20055;-73
2023/03/08 12:28:38;;;;;;;3.30;1.95;;;;;;;;;;4889428;29;19923;-73
2023/03/08 12:31:04;;;;;;;7.43;2.00;;;;;;;;;;4894593;29;20080;-73
2023/03/08 12:33:31;;;;;;;4.07;1.88;;;;;;;;;;4896480;29;20040;-73
2023/03/08 12:35:59;;;;;;;4.43;1.80;;;;;;;;;;4893165;29;20404;-73
2023/03/08 12:38:30;;;;;;;4.50;1.75;;;;;;;;;;4884506;29;20075;-73
2023/03/08 12:40:56;;;;;;;2.70;1.77;;;;;;;;;;4890174;29;20044;-73
2023/03/08 12:43:22;;;;;;;4.47;1.70;;;;;;;;;;4872213;29;20044;-73
2023/03/08 12:46:00;;;;;;;4.55;1.45;;;;;;;;;;4892392;29;20047;-73
2023/03/08 12:48:36;;;;;;;6.13;1.58;;;;;;;;;;4888824;29;20468;-74
2023/03/08 12:51:20;;;;;;;5.18;1.75;;;;;;;;;;4892679;29;20048;-73
2023/03/08 12:53:55;;;;;;;7.25;1.75;;;;;;;;;;4901011;29;20500;-73
2023/03/08 12:56:35;;;;;;;6.07;1.80;;;;;;;;;;4889928;29;20079;-74
2023/03/08 12:59:21;;;;;;;5.25;1.83;;;;;;;;;;4890458;29;20044;-73
2023/03/08 13:01:57;;;;;;;3.90;1.65;;;;;;;;;;4898103;29;20040;-73
2023/03/08 13:04:28;;;;;;;7.50;1.85;;;;;;;;;;4891099;29;20094;-73
2023/03/08 13:07:03;;;;;;;3.63;1.90;;;;;;;;;;4889596;29;20044;-73
2023/03/08 13:09:31;;;;;;;3.08;1.52;;;;;;;;;;4904409;29;20067;-74
2023/03/08 13:12:01;;;;;;;6.68;2.72;;;;;;;;;;4898441;29;20050;-74
2023/03/08 13:14:36;;;;;;;3.45;1.63;;;;;;;;;;4891559;29;20040;-74
2023/03/08 13:17:22;;;;;;;7.05;1.83;;;;;;;;;;4891255;29;20040;-74
2023/03/08 13:19:49;;;;;;;8.07;1.80;;;;;;;;;;4890672;29;20055;-74
2023/03/08 13:22:19;;;;;;;2.53;1.48;;;;;;;;;;4889046;29;20108;-74
2023/03/08 13:24:46;;;;;;;3.63;2.10;;;;;;;;;;4894730;29;20477;-74
2023/03/08 13:27:24;;;;;;;2.47;1.70;;;;;;;;;;4898188;29;20079;-74
2023/03/08 13:29:50;;;;;;;4.07;1.77;;;;;;;;;;4899287;29;20123;-74
2023/03/08 13:32:18;;;;;;;2.75;1.67;;;;;;;;;;4888057;29;20040;-74
2023/03/08 13:34:45;;;;;;;2.47;1.83;;;;;;;;;;4897468;29;20036;-74
2023/03/08 13:37:25;;;;;;;3.60;1.63;;;;;;;;;;4886803;29;20052;-73
2023/03/08 13:39:55;;;;;;;3.65;1.60;;;;;;;;;;4876543;29;20036;-74
2023/03/08 13:42:23;;;;;;;3.40;1.70;;;;;;;;;;4893689;29;20052;-74
2023/03/08 13:44:53;;;;;;;12.90;1.90;;;;;;;;;;4891218;29;20045;-74
2023/03/08 13:47:22;;;;;;;4.28;1.80;;;;;;;;;;4893556;29;20039;-74
2023/03/08 13:49:49;;;;;;;4.45;1.80;;;;;;;;;;4877529;29;20039;-74
2023/03/08 13:52:17;;;;;;;7.53;2.50;;;;;;;;;;4884965;29;20048;-74
2023/03/08 13:54:48;;;;;;;4.75;1.60;;;;;;;;;;4872670;29;20067;-74
2023/03/08 13:57:35;;;;;;;4.03;2.40;;;;;;;;;;4890013;29;20051;-74
2023/03/08 14:00:16;;;;;;;6.88;1.80;;;;;;;;;;4887442;29;20048;-73
2023/03/08 14:02:45;;;;;;;3.75;1.73;;;;;;;;;;4892179;29;20047;-73
2023/03/08 14:05:21;;;;;;;6.78;2.38;;;;;;;;;;4890151;29;20062;-73
2023/03/08 14:07:57;;;;;;;4.43;1.88;;;;;;;;;;4889819;29;20044;-74
2023/03/08 14:10:28;;;;;;;2.72;1.90;;;;;;;;;;4894587;29;20052;-74
2023/03/08 14:12:55;;;;;;;7.43;2.10;;;;;;;;;;4877946;29;20075;-74
2023/03/08 14:15:21;;;;;;;9.13;2.40;;;;;;;;;;4892398;29;20401;-74
2023/03/08 14:17:47;;;;;;;7.95;2.17;;;;;;;;;;4889287;29;20044;-73
2023/03/08 14:20:19;;;;;;;5.68;2.47;;;;;;;;;;4894200;29;20381;-73
2023/03/08 14:22:47;;;;;;;5.75;2.20;;;;;;;;;;4888520;29;20609;-74
2023/03/08 14:25:26;;;;;;;6.93;2.38;;;;;;;;;;4882449;29;20040;-74
2023/03/08 14:27:52;;;;;;;27.40;2.60;;;;;;;;;;4890819;29;20075;-74
2023/03/08 14:30:20;;;;;;;7.35;2.20;;;;;;;;;;4880403;29;20052;-74
2023/03/08 14:33:01;;;;;;;6.43;2.20;;;;;;;;;;4891546;29;20057;-73
2023/03/08 14:35:29;;;;;;;7.20;2.00;;;;;;;;;;4890788;29;20046;-73
2023/03/08 14:37:55;;;;;;;7.45;1.90;;;;;;;;;;4892341;29;20445;-73
2023/03/08 14:40:27;;;;;;;3.75;1.90;;;;;;;;;;4873493;29;20040;-74
2023/03/08 14:43:04;;;;;;;5.60;2.00;;;;;;;;;;4888227;29;20092;-74
2023/03/08 14:45:33;;;;;;;3.75;1.48;;;;;;;;;;4898131;29;20040;-74
2023/03/08 14:48:01;;;;;;;4.25;1.70;;;;;;;;;;4886390;29;20043;-74
2023/03/08 14:50:36;;;;;;;8.02;1.92;;;;;;;;;;4889457;29;20032;-73